sensor_id;sensor_type;location;lat;lon;timestamp;P1;durP1;ratioP1;P2;durP2;ratioP2
41167;SDS011;26906;45.658;9.272;2023-04-03T05:39:03;17.55;;;6.18;;
41167;SDS011;26906;45.658;9.272;2023-04-03T05:41:29;13.95;;;7.20;;
41167;SDS011;26906;45.658;9.272;2023-04-03T05:43:55;15.05;;;7.85;;
41167;SDS011;26906;45.658;9.272;2023-04-03T05:46:22;20.73;;;9.75;;
41167;SDS011;26906;45.658;9.272;2023-04-03T05:48:53;15.05;;;7.32;;
41167;SDS011;26906;45.658;9.272;2023-04-03T05:51:22;13.40;;;7.55;;
41167;SDS011;26906;45.658;9.272;2023-04-03T05:53:55;10.90;;;6.82;;
41167;SDS011;26906;45.658;9.272;2023-04-03T05:56:28;13.93;;;6.75;;
41167;SDS011;26906;45.658;9.272;2023-04-03T05:58:53;13.82;;;6.38;;
41167;SDS011;26906;45.658;9.272;2023-04-03T06:01:20;11.15;;;6.90;;
41167;SDS011;26906;45.658;9.272;2023-04-03T06:03:46;14.48;;;7.07;;
41167;SDS011;26906;45.658;9.272;2023-04-03T06:06:13;10.63;;;6.47;;
41167;SDS011;26906;45.658;9.272;2023-04-03T06:08:40;10.32;;;6.13;;
41167;SDS011;26906;45.658;9.272;2023-04-03T06:11:06;9.98;;;6.38;;
41167;SDS011;26906;45.658;9.272;2023-04-03T06:13:33;9.48;;;6.22;;
41167;SDS011;26906;45.658;9.272;2023-04-03T06:16:00;7.70;;;5.03;;
41167;SDS011;26906;45.658;9.272;2023-04-03T06:18:27;9.02;;;5.85;;
41167;SDS011;26906;45.658;9.272;2023-04-03T06:20:53;12.57;;;6.45;;
41167;SDS011;26906;45.658;9.272;2023-04-03T06:23:19;13.18;;;6.43;;
41167;SDS011;26906;45.658;9.272;2023-04-03T06:25:44;7.43;;;4.43;;
41167;SDS011;26906;45.658;9.272;2023-04-03T06:28:10;5.30;;;3.10;;
41167;SDS011;26906;45.658;9.272;2023-04-03T06:30:36;5.30;;;2.63;;
41167;SDS011;26906;45.658;9.272;2023-04-03T06:33:02;4.70;;;2.72;;
41167;SDS011;26906;45.658;9.272;2023-04-03T06:35:28;3.45;;;2.03;;
41167;SDS011;26906;45.658;9.272;2023-04-03T06:37:55;4.38;;;2.38;;
41167;SDS011;26906;45.658;9.272;2023-04-03T06:40:22;2.83;;;2.20;;
41167;SDS011;26906;45.658;9.272;2023-04-03T06:42:50;5.65;;;2.65;;
41167;SDS011;26906;45.658;9.272;2023-04-03T06:45:17;4.93;;;2.72;;
41167;SDS011;26906;45.658;9.272;2023-04-03T06:47:43;6.72;;;2.83;;
41167;SDS011;26906;45.658;9.272;2023-04-03T06:50:10;5.38;;;2.90;;
41167;SDS011;26906;45.658;9.272;2023-04-03T06:52:39;7.35;;;3.50;;
41167;SDS011;26906;45.658;9.272;2023-04-03T06:55:05;4.13;;;2.15;;
41167;SDS011;26906;45.658;9.272;2023-04-03T06:57:31;5.13;;;2.28;;
41167;SDS011;26906;45.658;9.272;2023-04-03T06:59:57;5.93;;;2.38;;
41167;SDS011;26906;45.658;9.272;2023-04-03T07:02:22;6.10;;;2.47;;
41167;SDS011;26906;45.658;9.272;2023-04-03T07:04:48;4.97;;;2.75;;
41167;SDS011;26906;45.658;9.272;2023-04-03T07:07:14;4.85;;;2.67;;
41167;SDS011;26906;45.658;9.272;2023-04-03T07:09:40;3.30;;;2.10;;
41167;SDS011;26906;45.658;9.272;2023-04-03T07:12:07;5.78;;;2.50;;
41167;SDS011;26906;45.658;9.272;2023-04-03T07:14:33;3.75;;;2.35;;
41167;SDS011;26906;45.658;9.272;2023-04-03T07:16:58;3.55;;;2.20;;
41167;SDS011;26906;45.658;9.272;2023-04-03T07:19:24;4.72;;;2.40;;
41167;SDS011;26906;45.658;9.272;2023-04-03T07:21:52;5.15;;;2.42;;
41167;SDS011;26906;45.658;9.272;2023-04-03T07:24:19;4.28;;;2.30;;
41167;SDS011;26906;45.658;9.272;2023-04-03T07:26:48;4.45;;;2.30;;
41167;SDS011;26906;45.658;9.272;2023-04-03T07:29:14;2.58;;;2.10;;
41167;SDS011;26906;45.658;9.272;2023-04-03T07:31:40;4.65;;;2.47;;
41167;SDS011;26906;45.658;9.272;2023-04-03T07:34:06;6.82;;;2.13;;
41167;SDS011;26906;45.658;9.272;2023-04-03T07:36:32;5.72;;;1.98;;
41167;SDS011;26906;45.658;9.272;2023-04-03T07:38:58;3.33;;;2.00;;
41167;SDS011;26906;45.658;9.272;2023-04-03T07:41:24;2.97;;;1.88;;
41167;SDS011;26906;45.658;9.272;2023-04-03T07:43:49;13.63;;;2.88;;
41167;SDS011;26906;45.658;9.272;2023-04-03T07:46:15;5.70;;;2.40;;
41167;SDS011;26906;45.658;9.272;2023-04-03T07:48:42;5.82;;;2.05;;
41167;SDS011;26906;45.658;9.272;2023-04-03T07:51:09;6.22;;;2.17;;
41167;SDS011;26906;45.658;9.272;2023-04-03T07:53:35;4.20;;;2.00;;
41167;SDS011;26906;45.658;9.272;2023-04-03T07:56:01;4.53;;;1.73;;
41167;SDS011;26906;45.658;9.272;2023-04-03T07:58:28;2.15;;;1.88;;
41167;SDS011;26906;45.658;9.272;2023-04-03T08:00:53;4.05;;;2.17;;
41167;SDS011;26906;45.658;9.272;2023-04-03T08:03:19;2.25;;;1.83;;
41167;SDS011;26906;45.658;9.272;2023-04-03T08:05:46;2.85;;;1.98;;
41167;SDS011;26906;45.658;9.272;2023-04-03T08:08:14;4.75;;;1.90;;
41167;SDS011;26906;45.658;9.272;2023-04-03T08:10:41;3.35;;;1.80;;
41167;SDS011;26906;45.658;9.272;2023-04-03T08:13:07;4.68;;;2.00;;
41167;SDS011;26906;45.658;9.272;2023-04-03T08:15:34;2.83;;;2.22;;
41167;SDS011;26906;45.658;9.272;2023-04-03T08:18:01;2.13;;;1.90;;
41167;SDS011;26906;45.658;9.272;2023-04-03T08:20:27;4.03;;;2.42;;
41167;SDS011;26906;45.658;9.272;2023-04-03T08:22:53;3.00;;;1.90;;
41167;SDS011;26906;45.658;9.272;2023-04-03T08:25:19;3.28;;;2.00;;
41167;SDS011;26906;45.658;9.272;2023-04-03T08:27:45;2.72;;;2.13;;
41167;SDS011;26906;45.658;9.272;2023-04-03T08:30:11;4.60;;;1.80;;
41167;SDS011;26906;45.658;9.272;2023-04-03T08:32:37;2.67;;;2.08;;
41167;SDS011;26906;45.658;9.272;2023-04-03T08:35:04;5.28;;;1.80;;
41167;SDS011;26906;45.658;9.272;2023-04-03T08:37:30;2.05;;;1.80;;
41167;SDS011;26906;45.658;9.272;2023-04-03T08:39:55;3.55;;;1.65;;
41167;SDS011;26906;45.658;9.272;2023-04-03T08:47:42;3.30;;;1.73;;
41167;SDS011;26906;45.658;9.272;2023-04-03T08:50:18;4.05;;;1.80;;
41167;SDS011;26906;45.658;9.272;2023-04-03T08:52:47;4.15;;;2.10;;
41167;SDS011;26906;45.658;9.272;2023-04-03T08:58:36;2.30;;;2.10;;
41167;SDS011;26906;45.658;9.272;2023-04-03T09:03:15;3.65;;;2.42;;
41167;SDS011;26906;45.658;9.272;2023-04-03T09:11:25;3.92;;;2.55;;
41167;SDS011;26906;45.658;9.272;2023-04-03T09:17:03;3.70;;;2.60;;
41167;SDS011;26906;45.658;9.272;2023-04-03T09:19:39;6.35;;;4.35;;
41167;SDS011;26906;45.658;9.272;2023-04-03T09:22:21;5.88;;;2.70;;
41167;SDS011;26906;45.658;9.272;2023-04-03T09:24:52;3.30;;;2.55;;
41167;SDS011;26906;45.658;9.272;2023-04-03T09:27:29;3.50;;;2.60;;
41167;SDS011;26906;45.658;9.272;2023-04-03T09:29:55;3.22;;;2.28;;
41167;SDS011;26906;45.658;9.272;2023-04-03T09:32:29;3.50;;;2.63;;
41167;SDS011;26906;45.658;9.272;2023-04-03T09:34:59;2.88;;;2.35;;
41167;SDS011;26906;45.658;9.272;2023-04-03T09:37:47;3.78;;;2.35;;
41167;SDS011;26906;45.658;9.272;2023-04-03T09:42:51;5.05;;;2.33;;
41167;SDS011;26906;45.658;9.272;2023-04-03T09:45:36;7.72;;;2.25;;
41167;SDS011;26906;45.658;9.272;2023-04-03T09:48:06;4.50;;;2.22;;
41167;SDS011;26906;45.658;9.272;2023-04-03T09:50:34;3.70;;;2.40;;
41167;SDS011;26906;45.658;9.272;2023-04-03T09:53:04;5.03;;;2.78;;
41167;SDS011;26906;45.658;9.272;2023-04-03T09:55:32;3.30;;;2.78;;
41167;SDS011;26906;45.658;9.272;2023-04-03T09:58:22;4.53;;;3.03;;
41167;SDS011;26906;45.658;9.272;2023-04-03T10:01:20;4.32;;;2.40;;
41167;SDS011;26906;45.658;9.272;2023-04-03T10:09:28;3.47;;;2.10;;
41167;SDS011;26906;45.658;9.272;2023-04-03T10:12:06;5.30;;;2.28;;
41167;SDS011;26906;45.658;9.272;2023-04-03T10:14:38;3.25;;;2.05;;
41167;SDS011;26906;45.658;9.272;2023-04-03T10:22:18;4.13;;;2.70;;
41167;SDS011;26906;45.658;9.272;2023-04-03T10:41:16;5.10;;;2.42;;
41167;SDS011;26906;45.658;9.272;2023-04-03T10:44:08;3.42;;;2.45;;
41167;SDS011;26906;45.658;9.272;2023-04-03T10:47:20;4.10;;;2.40;;
41167;SDS011;26906;45.658;9.272;2023-04-03T10:49:38;3.92;;;2.45;;
41167;SDS011;26906;45.658;9.272;2023-04-03T10:52:30;4.03;;;2.40;;
41167;SDS011;26906;45.658;9.272;2023-04-03T10:57:52;4.05;;;2.47;;
41167;SDS011;26906;45.658;9.272;2023-04-03T11:00:22;3.42;;;2.45;;
41167;SDS011;26906;45.658;9.272;2023-04-03T11:03:05;2.47;;;2.28;;
41167;SDS011;26906;45.658;9.272;2023-04-03T11:05:45;3.03;;;2.20;;
41167;SDS011;26906;45.658;9.272;2023-04-03T11:13:59;5.55;;;2.78;;
41167;SDS011;26906;45.658;9.272;2023-04-03T11:16:29;5.30;;;2.08;;
41167;SDS011;26906;45.658;9.272;2023-04-03T11:19:11;5.38;;;2.28;;
41167;SDS011;26906;45.658;9.272;2023-04-03T11:22:02;3.05;;;1.98;;
41167;SDS011;26906;45.658;9.272;2023-04-03T11:24:46;6.28;;;2.40;;
41167;SDS011;26906;45.658;9.272;2023-04-03T11:27:22;3.72;;;2.20;;
41167;SDS011;26906;45.658;9.272;2023-04-03T11:29:50;4.13;;;2.30;;
41167;SDS011;26906;45.658;9.272;2023-04-03T11:35:00;2.47;;;2.15;;
41167;SDS011;26906;45.658;9.272;2023-04-03T11:37:34;4.05;;;2.00;;
41167;SDS011;26906;45.658;9.272;2023-04-03T11:40:05;2.50;;;2.30;;
41167;SDS011;26906;45.658;9.272;2023-04-03T11:42:40;2.95;;;2.20;;
41167;SDS011;26906;45.658;9.272;2023-04-03T11:47:55;9.15;;;3.50;;
41167;SDS011;26906;45.658;9.272;2023-04-03T11:58:20;7.22;;;2.30;;
41167;SDS011;26906;45.658;9.272;2023-04-03T12:00:51;2.77;;;1.90;;
41167;SDS011;26906;45.658;9.272;2023-04-03T12:16:21;3.05;;;2.75;;
41167;SDS011;26906;45.658;9.272;2023-04-03T12:18:55;3.35;;;2.30;;
41167;SDS011;26906;45.658;9.272;2023-04-03T12:29:23;4.00;;;2.25;;
41167;SDS011;26906;45.658;9.272;2023-04-03T12:31:55;9.93;;;3.00;;
41167;SDS011;26906;45.658;9.272;2023-04-03T12:40:10;2.70;;;2.08;;
41167;SDS011;26906;45.658;9.272;2023-04-03T12:45:22;2.83;;;2.22;;
41167;SDS011;26906;45.658;9.272;2023-04-03T12:47:49;4.95;;;2.20;;
41167;SDS011;26906;45.658;9.272;2023-04-03T12:50:18;6.50;;;2.35;;
41167;SDS011;26906;45.658;9.272;2023-04-03T12:55:57;3.40;;;1.90;;
41167;SDS011;26906;45.658;9.272;2023-04-03T12:58:43;8.60;;;2.63;;
41167;SDS011;26906;45.658;9.272;2023-04-03T13:01:16;2.03;;;1.83;;
41167;SDS011;26906;45.658;9.272;2023-04-03T13:04:01;3.85;;;1.70;;
41167;SDS011;26906;45.658;9.272;2023-04-03T13:06:28;1.80;;;1.70;;
41167;SDS011;26906;45.658;9.272;2023-04-03T13:08:58;4.32;;;1.75;;
41167;SDS011;26906;45.658;9.272;2023-04-03T13:11:26;3.67;;;1.75;;
41167;SDS011;26906;45.658;9.272;2023-04-03T13:16:25;2.35;;;1.70;;
41167;SDS011;26906;45.658;9.272;2023-04-03T13:18:52;4.70;;;1.77;;
41167;SDS011;26906;45.658;9.272;2023-04-03T13:21:24;3.70;;;1.80;;
41167;SDS011;26906;45.658;9.272;2023-04-03T13:23:53;3.05;;;1.58;;
41167;SDS011;26906;45.658;9.272;2023-04-03T13:26:21;3.25;;;1.80;;
41167;SDS011;26906;45.658;9.272;2023-04-03T13:28:49;3.20;;;1.80;;
41167;SDS011;26906;45.658;9.272;2023-04-03T13:31:26;2.90;;;1.70;;
41167;SDS011;26906;45.658;9.272;2023-04-03T13:33:57;4.10;;;1.80;;
41167;SDS011;26906;45.658;9.272;2023-04-03T13:36:31;2.08;;;1.60;;
41167;SDS011;26906;45.658;9.272;2023-04-03T13:39:05;2.10;;;1.70;;
41167;SDS011;26906;45.658;9.272;2023-04-03T13:41:44;4.05;;;1.70;;
41167;SDS011;26906;45.658;9.272;2023-04-03T13:46:40;2.88;;;1.92;;
41167;SDS011;26906;45.658;9.272;2023-04-03T13:49:17;1.90;;;1.80;;
41167;SDS011;26906;45.658;9.272;2023-04-03T13:51:57;2.33;;;1.80;;
41167;SDS011;26906;45.658;9.272;2023-04-03T13:54:45;3.75;;;1.70;;
41167;SDS011;26906;45.658;9.272;2023-04-03T13:57:12;4.07;;;2.00;;
41167;SDS011;26906;45.658;9.272;2023-04-03T13:59:39;2.30;;;1.83;;
41167;SDS011;26906;45.658;9.272;2023-04-03T14:07:08;3.63;;;1.80;;
41167;SDS011;26906;45.658;9.272;2023-04-03T14:09:35;2.97;;;1.73;;
41167;SDS011;26906;45.658;9.272;2023-04-03T14:12:04;1.80;;;1.70;;
41167;SDS011;26906;45.658;9.272;2023-04-03T14:14:40;4.15;;;1.90;;
41167;SDS011;26906;45.658;9.272;2023-04-03T14:17:15;1.98;;;1.85;;
41167;SDS011;26906;45.658;9.272;2023-04-03T14:19:45;2.55;;;1.60;;
41167;SDS011;26906;45.658;9.272;2023-04-03T14:22:14;2.38;;;1.77;;
41167;SDS011;26906;45.658;9.272;2023-04-03T14:24:48;1.83;;;1.70;;
41167;SDS011;26906;45.658;9.272;2023-04-03T14:27:20;3.65;;;1.80;;
41167;SDS011;26906;45.658;9.272;2023-04-03T14:29:51;3.08;;;2.78;;
41167;SDS011;26906;45.658;9.272;2023-04-03T14:32:19;3.35;;;2.47;;
41167;SDS011;26906;45.658;9.272;2023-04-03T14:34:46;4.03;;;1.67;;
41167;SDS011;26906;45.658;9.272;2023-04-03T14:37:14;3.42;;;1.90;;
41167;SDS011;26906;45.658;9.272;2023-04-03T14:39:42;3.42;;;1.88;;
41167;SDS011;26906;45.658;9.272;2023-04-03T14:42:13;4.40;;;1.88;;
41167;SDS011;26906;45.658;9.272;2023-04-03T14:44:41;2.10;;;1.70;;
41167;SDS011;26906;45.658;9.272;2023-04-03T14:47:11;4.47;;;2.08;;
41167;SDS011;26906;45.658;9.272;2023-04-03T14:49:38;5.25;;;1.63;;
41167;SDS011;26906;45.658;9.272;2023-04-03T14:52:04;2.70;;;1.52;;
41167;SDS011;26906;45.658;9.272;2023-04-03T14:54:30;4.95;;;1.80;;
41167;SDS011;26906;45.658;9.272;2023-04-03T14:56:57;3.65;;;1.80;;
41167;SDS011;26906;45.658;9.272;2023-04-03T14:59:25;4.90;;;1.77;;
41167;SDS011;26906;45.658;9.272;2023-04-03T15:01:51;5.38;;;1.80;;
41167;SDS011;26906;45.658;9.272;2023-04-03T15:04:18;2.85;;;1.70;;
41167;SDS011;26906;45.658;9.272;2023-04-03T15:06:46;2.20;;;1.77;;
41167;SDS011;26906;45.658;9.272;2023-04-03T15:09:23;2.88;;;1.77;;
41167;SDS011;26906;45.658;9.272;2023-04-03T15:11:51;2.17;;;1.58;;
41167;SDS011;26906;45.658;9.272;2023-04-03T15:14:18;3.08;;;1.65;;
41167;SDS011;26906;45.658;9.272;2023-04-03T15:16:44;4.80;;;1.92;;
41167;SDS011;26906;45.658;9.272;2023-04-03T15:19:10;7.22;;;2.10;;
41167;SDS011;26906;45.658;9.272;2023-04-03T15:21:36;4.13;;;2.17;;
41167;SDS011;26906;45.658;9.272;2023-04-03T15:24:02;5.57;;;2.00;;
41167;SDS011;26906;45.658;9.272;2023-04-03T15:26:30;4.05;;;2.10;;
41167;SDS011;26906;45.658;9.272;2023-04-03T15:28:57;2.97;;;2.08;;
41167;SDS011;26906;45.658;9.272;2023-04-03T15:31:27;4.85;;;2.10;;
41167;SDS011;26906;45.658;9.272;2023-04-03T15:33:52;4.70;;;2.25;;
41167;SDS011;26906;45.658;9.272;2023-04-03T15:36:18;3.10;;;1.98;;
41167;SDS011;26906;45.658;9.272;2023-04-03T15:38:44;4.18;;;2.00;;
41167;SDS011;26906;45.658;9.272;2023-04-03T15:41:09;7.43;;;2.10;;
41167;SDS011;26906;45.658;9.272;2023-04-03T15:43:36;9.70;;;2.30;;
41167;SDS011;26906;45.658;9.272;2023-04-03T15:46:02;5.07;;;2.15;;
41167;SDS011;26906;45.658;9.272;2023-04-03T15:48:28;1.98;;;1.83;;
41167;SDS011;26906;45.658;9.272;2023-04-03T15:50:54;4.80;;;2.00;;
41167;SDS011;26906;45.658;9.272;2023-04-03T15:53:20;3.72;;;1.90;;
41167;SDS011;26906;45.658;9.272;2023-04-03T15:55:46;3.67;;;2.40;;
41167;SDS011;26906;45.658;9.272;2023-04-03T15:58:12;5.03;;;2.20;;
41167;SDS011;26906;45.658;9.272;2023-04-03T16:00:37;5.43;;;2.40;;
41167;SDS011;26906;45.658;9.272;2023-04-03T16:03:07;5.53;;;2.05;;
41167;SDS011;26906;45.658;9.272;2023-04-03T16:05:35;4.63;;;2.20;;
41167;SDS011;26906;45.658;9.272;2023-04-03T16:08:03;4.68;;;2.10;;
41167;SDS011;26906;45.658;9.272;2023-04-03T16:10:32;4.72;;;2.72;;
41167;SDS011;26906;45.658;9.272;2023-04-03T16:13:02;5.70;;;2.40;;
41167;SDS011;26906;45.658;9.272;2023-04-03T16:15:32;6.15;;;2.67;;
41167;SDS011;26906;45.658;9.272;2023-04-03T16:18:04;4.35;;;2.30;;
41167;SDS011;26906;45.658;9.272;2023-04-03T16:20:30;7.22;;;2.13;;
41167;SDS011;26906;45.658;9.272;2023-04-03T16:22:57;4.55;;;2.30;;
41167;SDS011;26906;45.658;9.272;2023-04-03T16:25:25;5.32;;;2.50;;
41167;SDS011;26906;45.658;9.272;2023-04-03T16:27:52;10.15;;;2.50;;
41167;SDS011;26906;45.658;9.272;2023-04-03T16:30:18;5.47;;;2.45;;
41167;SDS011;26906;45.658;9.272;2023-04-03T16:32:44;6.28;;;2.58;;
41167;SDS011;26906;45.658;9.272;2023-04-03T16:35:10;4.43;;;2.28;;
41167;SDS011;26906;45.658;9.272;2023-04-03T16:37:37;4.55;;;2.10;;
41167;SDS011;26906;45.658;9.272;2023-04-03T16:40:04;5.53;;;2.63;;
41167;SDS011;26906;45.658;9.272;2023-04-03T16:42:31;8.50;;;2.55;;
41167;SDS011;26906;45.658;9.272;2023-04-03T16:44:57;8.30;;;2.28;;
41167;SDS011;26906;45.658;9.272;2023-04-03T16:47:25;4.47;;;2.45;;
41167;SDS011;26906;45.658;9.272;2023-04-03T16:49:52;7.22;;;2.83;;
41167;SDS011;26906;45.658;9.272;2023-04-03T16:52:17;4.47;;;2.30;;
41167;SDS011;26906;45.658;9.272;2023-04-03T16:54:44;9.18;;;2.58;;
41167;SDS011;26906;45.658;9.272;2023-04-03T16:57:10;8.60;;;2.78;;
41167;SDS011;26906;45.658;9.272;2023-04-03T16:59:36;4.82;;;2.22;;
41167;SDS011;26906;45.658;9.272;2023-04-03T17:02:03;7.00;;;2.50;;
41167;SDS011;26906;45.658;9.272;2023-04-03T17:04:29;5.45;;;2.58;;
41167;SDS011;26906;45.658;9.272;2023-04-03T17:06:54;6.28;;;2.80;;
41167;SDS011;26906;45.658;9.272;2023-04-03T17:09:20;9.02;;;2.80;;
41167;SDS011;26906;45.658;9.272;2023-04-03T17:11:47;9.07;;;3.50;;
41167;SDS011;26906;45.658;9.272;2023-04-03T17:14:13;7.20;;;2.90;;
41167;SDS011;26906;45.658;9.272;2023-04-03T17:16:39;6.18;;;3.15;;
41167;SDS011;26906;45.658;9.272;2023-04-03T17:19:05;4.88;;;2.75;;
41167;SDS011;26906;45.658;9.272;2023-04-03T17:21:32;5.88;;;2.97;;
41167;SDS011;26906;45.658;9.272;2023-04-03T17:23:59;6.28;;;2.45;;
41167;SDS011;26906;45.658;9.272;2023-04-03T17:26:27;4.60;;;2.80;;
41167;SDS011;26906;45.658;9.272;2023-04-03T17:28:53;7.07;;;2.20;;
41167;SDS011;26906;45.658;9.272;2023-04-03T17:31:19;5.35;;;2.20;;
41167;SDS011;26906;45.658;9.272;2023-04-03T17:33:45;7.05;;;2.08;;
41167;SDS011;26906;45.658;9.272;2023-04-03T17:36:11;4.07;;;2.45;;
41167;SDS011;26906;45.658;9.272;2023-04-03T17:38:37;3.17;;;2.28;;
41167;SDS011;26906;45.658;9.272;2023-04-03T17:41:04;6.65;;;2.78;;
41167;SDS011;26906;45.658;9.272;2023-04-03T17:43:31;5.22;;;2.25;;
41167;SDS011;26906;45.658;9.272;2023-04-03T17:46:01;4.20;;;2.60;;
41167;SDS011;26906;45.658;9.272;2023-04-03T17:48:29;9.77;;;2.50;;
41167;SDS011;26906;45.658;9.272;2023-04-03T17:50:55;6.68;;;2.10;;
41167;SDS011;26906;45.658;9.272;2023-04-03T17:53:21;5.55;;;3.08;;
41167;SDS011;26906;45.658;9.272;2023-04-03T17:55:47;5.18;;;2.80;;
41167;SDS011;26906;45.658;9.272;2023-04-03T17:58:12;7.30;;;2.53;;
41167;SDS011;26906;45.658;9.272;2023-04-03T18:00:40;7.82;;;2.70;;
41167;SDS011;26906;45.658;9.272;2023-04-03T18:03:07;5.30;;;2.40;;
41167;SDS011;26906;45.658;9.272;2023-04-03T18:05:32;5.05;;;2.63;;
41167;SDS011;26906;45.658;9.272;2023-04-03T18:08:00;7.63;;;2.45;;
41167;SDS011;26906;45.658;9.272;2023-04-03T18:10:26;4.07;;;2.20;;
41167;SDS011;26906;45.658;9.272;2023-04-03T18:12:52;11.45;;;2.80;;
41167;SDS011;26906;45.658;9.272;2023-04-03T18:15:18;4.15;;;2.50;;
41167;SDS011;26906;45.658;9.272;2023-04-03T18:17:44;5.60;;;2.53;;
41167;SDS011;26906;45.658;9.272;2023-04-03T18:20:11;4.25;;;2.50;;
41167;SDS011;26906;45.658;9.272;2023-04-03T18:22:39;5.68;;;2.35;;
41167;SDS011;26906;45.658;9.272;2023-04-03T18:25:05;3.55;;;2.33;;
41167;SDS011;26906;45.658;9.272;2023-04-03T18:27:35;5.43;;;2.97;;
41167;SDS011;26906;45.658;9.272;2023-04-03T18:30:05;5.35;;;3.47;;
41167;SDS011;26906;45.658;9.272;2023-04-03T18:32:34;7.78;;;4.30;;
41167;SDS011;26906;45.658;9.272;2023-04-03T18:35:00;8.27;;;4.55;;
41167;SDS011;26906;45.658;9.272;2023-04-03T18:37:25;7.15;;;4.47;;
41167;SDS011;26906;45.658;9.272;2023-04-03T18:39:52;10.10;;;4.30;;
41167;SDS011;26906;45.658;9.272;2023-04-03T18:42:18;5.93;;;3.47;;
41167;SDS011;26906;45.658;9.272;2023-04-03T18:44:48;10.35;;;3.70;;
41167;SDS011;26906;45.658;9.272;2023-04-03T18:47:17;8.20;;;3.35;;
41167;SDS011;26906;45.658;9.272;2023-04-03T18:49:44;6.25;;;2.70;;
41167;SDS011;26906;45.658;9.272;2023-04-03T18:52:11;6.15;;;3.33;;
41167;SDS011;26906;45.658;9.272;2023-04-03T18:54:37;8.50;;;3.58;;
41167;SDS011;26906;45.658;9.272;2023-04-03T18:57:03;6.05;;;3.75;;
41167;SDS011;26906;45.658;9.272;2023-04-03T18:59:30;9.35;;;2.88;;
41167;SDS011;26906;45.658;9.272;2023-04-03T19:01:57;8.57;;;4.07;;
41167;SDS011;26906;45.658;9.272;2023-04-03T19:04:25;5.10;;;2.90;;
41167;SDS011;26906;45.658;9.272;2023-04-03T19:06:52;7.70;;;3.60;;
41167;SDS011;26906;45.658;9.272;2023-04-03T19:09:18;4.78;;;3.08;;
41167;SDS011;26906;45.658;9.272;2023-04-03T19:11:44;6.35;;;3.50;;
41167;SDS011;26906;45.658;9.272;2023-04-03T19:14:10;6.35;;;3.13;;
41167;SDS011;26906;45.658;9.272;2023-04-03T19:16:36;7.90;;;3.45;;
41167;SDS011;26906;45.658;9.272;2023-04-03T19:19:01;7.13;;;4.25;;
41167;SDS011;26906;45.658;9.272;2023-04-03T19:21:27;5.93;;;3.28;;
41167;SDS011;26906;45.658;9.272;2023-04-03T19:23:54;9.57;;;3.55;;
41167;SDS011;26906;45.658;9.272;2023-04-03T19:26:23;7.97;;;2.97;;
41167;SDS011;26906;45.658;9.272;2023-04-03T19:28:50;5.68;;;2.72;;
41167;SDS011;26906;45.658;9.272;2023-04-03T19:31:17;4.97;;;3.00;;
41167;SDS011;26906;45.658;9.272;2023-04-03T19:33:47;7.40;;;3.03;;
41167;SDS011;26906;45.658;9.272;2023-04-03T19:36:13;6.80;;;2.53;;
41167;SDS011;26906;45.658;9.272;2023-04-03T19:38:40;6.95;;;3.30;;
41167;SDS011;26906;45.658;9.272;2023-04-03T19:41:29;5.35;;;2.72;;
41167;SDS011;26906;45.658;9.272;2023-04-03T19:43:56;5.43;;;2.65;;
41167;SDS011;26906;45.658;9.272;2023-04-03T19:46:22;5.80;;;2.55;;
41167;SDS011;26906;45.658;9.272;2023-04-03T19:48:50;5.88;;;2.28;;
41167;SDS011;26906;45.658;9.272;2023-04-03T19:51:16;4.13;;;2.25;;
41167;SDS011;26906;45.658;9.272;2023-04-03T19:53:42;5.20;;;2.25;;
41167;SDS011;26906;45.658;9.272;2023-04-03T19:56:08;4.68;;;2.28;;
41167;SDS011;26906;45.658;9.272;2023-04-03T19:58:34;4.82;;;1.88;;
41167;SDS011;26906;45.658;9.272;2023-04-03T20:01:03;5.45;;;1.67;;
41167;SDS011;26906;45.658;9.272;2023-04-03T20:03:29;10.45;;;1.95;;
41167;SDS011;26906;45.658;9.272;2023-04-03T20:05:55;4.13;;;1.75;;
41167;SDS011;26906;45.658;9.272;2023-04-03T20:08:22;4.00;;;1.65;;
41167;SDS011;26906;45.658;9.272;2023-04-03T20:10:50;3.80;;;2.00;;
41167;SDS011;26906;45.658;9.272;2023-04-03T20:13:16;8.20;;;2.15;;
41167;SDS011;26906;45.658;9.272;2023-04-03T20:15:42;6.07;;;1.98;;
41167;SDS011;26906;45.658;9.272;2023-04-03T20:18:18;10.45;;;1.98;;
41167;SDS011;26906;45.658;9.272;2023-04-03T20:20:51;11.05;;;2.10;;
41167;SDS011;26906;45.658;9.272;2023-04-03T20:23:18;5.85;;;2.13;;
